createdAt,value
2022-12-09T00:02:53.231Z,35.83
2022-12-09T00:05:56.352Z,37.00
2022-12-09T00:08:59.654Z,38.80
2022-12-09T00:12:02.736Z,38.03
2022-12-09T00:15:06.037Z,36.05
2022-12-09T00:18:10.159Z,36.53
2022-12-09T00:21:15.250Z,41.03
2022-12-09T00:24:18.093Z,41.67
2022-12-09T00:27:21.146Z,42.95
2022-12-09T00:30:24.930Z,37.47
2022-12-09T00:33:28.265Z,40.50
2022-12-09T00:36:31.063Z,35.60
2022-12-09T00:39:34.131Z,37.60
2022-12-09T00:42:37.185Z,35.30
2022-12-09T00:45:39.913Z,40.40
2022-12-09T00:48:43.605Z,39.25
2022-12-09T00:51:46.395Z,38.07
2022-12-09T00:54:49.380Z,40.63
2022-12-09T00:57:52.220Z,43.22
2022-12-09T01:00:55.265Z,37.25
2022-12-09T01:03:58.985Z,37.00
2022-12-09T01:07:02.020Z,36.83
2022-12-09T01:10:06.476Z,37.17
2022-12-09T01:13:13.921Z,38.30
2022-12-09T01:16:19.706Z,38.90
2022-12-09T01:19:22.686Z,40.95
2022-12-09T01:22:29.511Z,40.73
2022-12-09T01:25:32.415Z,34.70
2022-12-09T01:28:36.557Z,39.13
2022-12-09T01:31:39.969Z,41.55
2022-12-09T01:34:43.645Z,38.72
2022-12-09T01:37:46.755Z,38.63
2022-12-09T01:40:49.689Z,40.70
2022-12-09T01:44:11.097Z,37.55
2022-12-09T01:47:22.020Z,37.63
2022-12-09T01:50:26.586Z,35.38
2022-12-09T01:53:36.044Z,37.07
2022-12-09T01:56:40.355Z,36.63
2022-12-09T01:59:44.193Z,38.45
2022-12-09T02:02:49.721Z,37.38
2022-12-09T02:05:53.430Z,35.10
2022-12-09T02:08:57.161Z,34.07
2022-12-09T02:12:19.768Z,35.10
2022-12-09T02:15:45.435Z,37.03
2022-12-09T02:19:03.897Z,37.58
2022-12-09T02:22:09.086Z,39.17
2022-12-09T02:25:46.414Z,44.60
2022-12-09T02:28:55.349Z,41.17
2022-12-09T02:31:58.180Z,40.42
2022-12-09T02:35:06.229Z,40.95
2022-12-09T02:38:21.063Z,39.25
2022-12-09T02:41:27.041Z,40.07
2022-12-09T02:44:30.183Z,44.40
2022-12-09T02:47:35.972Z,41.58
2022-12-09T02:50:40.766Z,42.53
2022-12-09T02:53:48.535Z,39.97
2022-12-09T02:56:57.794Z,42.90
2022-12-09T03:00:06.846Z,42.80
2022-12-09T03:03:15.014Z,37.50
2022-12-09T03:06:19.186Z,41.75
2022-12-09T03:09:33.959Z,44.67
2022-12-09T03:12:38.567Z,42.87
2022-12-09T03:15:46.056Z,45.03
2022-12-09T03:18:53.020Z,41.03
2022-12-09T03:22:03.973Z,47.47
2022-12-09T03:25:07.037Z,41.55
2022-12-09T03:28:16.164Z,43.03
2022-12-09T03:31:20.839Z,41.17
2022-12-09T03:34:26.955Z,45.78
2022-12-09T03:37:31.123Z,43.13
2022-12-09T03:40:34.663Z,46.28
2022-12-09T03:43:41.731Z,46.93
2022-12-09T03:46:45.140Z,42.33
2022-12-09T03:49:47.979Z,46.78
2022-12-09T03:52:55.383Z,45.30
2022-12-09T03:56:03.777Z,51.47
2022-12-09T03:59:11.437Z,43.37
2022-12-09T04:02:14.477Z,44.23
2022-12-09T04:05:17.856Z,44.58
2022-12-09T04:08:21.457Z,47.92
2022-12-09T04:11:24.375Z,46.08
2022-12-09T04:14:27.621Z,45.67
2022-12-09T04:17:30.720Z,45.23
2022-12-09T04:20:33.957Z,49.17
2022-12-09T04:23:42.517Z,47.55
2022-12-09T04:26:46.064Z,47.72
2022-12-09T04:29:48.882Z,45.30
2022-12-09T04:32:51.805Z,44.33
2022-12-09T04:35:54.695Z,46.40
2022-12-09T04:38:57.749Z,42.88
2022-12-09T04:42:00.582Z,51.60
2022-12-09T04:45:03.768Z,52.67
2022-12-09T04:48:06.952Z,49.27
2022-12-09T04:51:11.277Z,50.80
2022-12-09T04:54:14.864Z,54.45
2022-12-09T04:57:18.649Z,49.85
2022-12-09T05:00:22.157Z,50.57
2022-12-09T05:03:25.610Z,53.07
2022-12-09T05:06:29.486Z,48.80
2022-12-09T05:09:33.229Z,50.15
2022-12-09T05:12:37.176Z,45.60
2022-12-09T05:15:40.247Z,48.67
2022-12-09T05:18:44.002Z,47.17
2022-12-09T05:21:47.046Z,52.53
2022-12-09T05:24:50.346Z,45.08
2022-12-09T05:27:56.708Z,46.95
2022-12-09T05:31:04.823Z,44.23
2022-12-09T05:34:07.890Z,46.90
2022-12-09T05:37:15.528Z,47.80
2022-12-09T05:40:18.970Z,47.45
2022-12-09T05:43:22.338Z,45.38
2022-12-09T05:46:25.214Z,45.23
2022-12-09T05:49:33.167Z,48.07
2022-12-09T05:52:37.158Z,48.03
2022-12-09T05:55:42.076Z,43.90
2022-12-09T05:58:45.651Z,43.87
2022-12-09T06:01:49.369Z,40.57
2022-12-09T06:04:52.939Z,43.63
2022-12-09T06:07:56.517Z,43.67
2022-12-09T06:11:00.457Z,43.75
2022-12-09T06:14:04.223Z,42.62
2022-12-09T06:17:10.360Z,41.23
2022-12-09T06:20:13.739Z,40.27
2022-12-09T06:23:17.187Z,45.78
2022-12-09T06:26:26.096Z,42.45
2022-12-09T06:29:29.485Z,47.17
2022-12-09T06:32:34.508Z,50.60
2022-12-09T06:35:37.898Z,43.63
2022-12-09T06:38:41.183Z,46.22
2022-12-09T06:41:44.452Z,44.80
2022-12-09T06:44:47.826Z,49.22
2022-12-09T06:47:53.822Z,50.57
2022-12-09T06:50:57.462Z,46.67
2022-12-09T06:54:00.502Z,49.78
2022-12-09T06:57:04.466Z,52.60
2022-12-09T07:00:07.968Z,52.97
2022-12-09T07:03:13.107Z,53.80
2022-12-09T07:06:27.735Z,49.43
2022-12-09T07:09:31.718Z,56.30
2022-12-09T07:12:38.356Z,51.85
2022-12-09T07:15:41.642Z,49.33
2022-12-09T07:18:44.891Z,53.63
2022-12-09T07:21:49.632Z,55.83
2022-12-09T07:24:52.958Z,54.28
2022-12-09T07:27:55.962Z,53.17
2022-12-09T07:30:58.909Z,54.00
2022-12-09T07:34:03.959Z,51.93
2022-12-09T07:37:07.802Z,48.23
2022-12-09T07:40:11.190Z,48.78
2022-12-09T07:43:14.432Z,46.05
2022-12-09T07:46:19.373Z,46.30
2022-12-09T07:49:23.179Z,51.37
2022-12-09T07:52:26.477Z,43.23
2022-12-09T07:55:29.441Z,39.13
2022-12-09T07:58:32.907Z,38.20
2022-12-09T08:01:37.149Z,41.37
2022-12-09T08:04:40.430Z,33.43
2022-12-09T08:07:44.767Z,33.40
2022-12-09T08:10:50.145Z,27.73
2022-12-09T08:13:57.047Z,29.12
2022-12-09T08:17:00.254Z,28.55
2022-12-09T08:20:03.375Z,27.30
2022-12-09T08:23:10.541Z,28.80
2022-12-09T08:26:15.610Z,28.23
2022-12-09T08:29:22.348Z,24.15
2022-12-09T08:32:26.473Z,27.17
2022-12-09T08:35:38.019Z,27.00
2022-12-09T08:38:42.043Z,22.60
2022-12-09T08:41:48.465Z,26.37
2022-12-09T08:44:55.870Z,23.40
2022-12-09T08:48:12.720Z,18.73
2022-12-09T08:51:15.832Z,19.63
2022-12-09T08:54:19.272Z,20.77
2022-12-09T08:57:24.902Z,18.50
2022-12-09T09:00:33.913Z,16.48
2022-12-09T09:03:37.370Z,15.57
2022-12-09T09:06:42.475Z,14.07
2022-12-09T09:09:46.282Z,14.27
2022-12-09T09:12:49.431Z,11.57
2022-12-09T09:15:52.691Z,12.25
2022-12-09T09:18:56.347Z,16.67
2022-12-09T09:21:59.914Z,20.27
2022-12-09T09:25:03.910Z,15.77
2022-12-09T09:28:06.983Z,15.45
2022-12-09T09:31:12.781Z,18.52
2022-12-09T09:34:18.012Z,16.02
2022-12-09T09:37:21.481Z,15.63
2022-12-09T09:40:24.458Z,15.00
2022-12-09T09:43:32.243Z,15.68
2022-12-09T09:46:37.106Z,16.50
2022-12-09T09:49:46.978Z,15.35
2022-12-09T09:52:53.335Z,16.27
2022-12-09T09:56:02.928Z,16.57
2022-12-09T09:59:24.764Z,19.33
2022-12-09T10:02:35.629Z,17.87
2022-12-09T10:05:50.880Z,18.12
2022-12-09T10:09:04.580Z,18.43
2022-12-09T10:12:26.221Z,16.97
2022-12-09T10:15:32.604Z,19.77
2022-12-09T10:18:58.631Z,18.25
2022-12-09T10:22:13.583Z,21.95
2022-12-09T10:25:30.145Z,21.07
2022-12-09T10:28:35.890Z,18.30
2022-12-09T10:31:39.111Z,21.35
2022-12-09T10:34:43.351Z,21.73
2022-12-09T10:37:52.663Z,19.50
2022-12-09T10:41:15.246Z,22.27
2022-12-09T10:44:23.364Z,21.80
2022-12-09T10:47:30.007Z,21.83
2022-12-09T10:50:35.904Z,22.98
2022-12-09T10:53:46.760Z,25.40
2022-12-09T10:57:12.929Z,27.33
2022-12-09T11:00:24.681Z,26.00
2022-12-09T11:03:40.534Z,26.52
2022-12-09T11:06:44.111Z,28.73
2022-12-09T11:10:01.015Z,26.83
2022-12-09T11:13:07.170Z,25.83
2022-12-09T11:16:13.382Z,25.77
2022-12-09T11:19:16.872Z,22.30
2022-12-09T11:22:39.603Z,28.35
2022-12-09T11:26:06.170Z,23.58
2022-12-09T11:29:18.533Z,24.67
2022-12-09T11:32:21.644Z,22.90
2022-12-09T11:35:31.101Z,25.10
2022-12-09T11:38:42.329Z,23.25
2022-12-09T11:42:18.957Z,24.00
2022-12-09T11:45:31.366Z,23.53
2022-12-09T11:48:43.259Z,24.00
2022-12-09T11:52:03.756Z,23.02
2022-12-09T11:55:14.785Z,24.67
2022-12-09T11:58:29.663Z,23.98
2022-12-09T12:01:42.959Z,24.60
2022-12-09T12:04:51.857Z,26.43
2022-12-09T12:08:11.882Z,24.17
2022-12-09T12:11:22.062Z,28.45
2022-12-09T12:14:29.347Z,24.45
2022-12-09T12:17:43.844Z,24.33
2022-12-09T12:21:08.105Z,24.77
2022-12-09T12:24:20.624Z,23.42
2022-12-09T12:27:31.358Z,28.25
2022-12-09T12:30:42.809Z,30.15
2022-12-09T12:34:16.096Z,28.83
2022-12-09T12:37:28.464Z,27.70
2022-12-09T12:40:41.195Z,30.10
2022-12-09T12:44:15.743Z,32.92
2022-12-09T12:48:00.665Z,32.70
2022-12-09T12:51:22.426Z,31.47
2022-12-09T12:54:31.505Z,35.27
2022-12-09T12:57:46.784Z,32.47
2022-12-09T13:01:08.825Z,31.33
2022-12-09T13:04:50.236Z,32.65
2022-12-09T13:07:58.283Z,38.17
2022-12-09T13:11:09.797Z,36.77
2022-12-09T13:14:17.978Z,37.00
2022-12-09T13:17:27.684Z,35.65
2022-12-09T13:20:46.622Z,36.75
2022-12-09T13:24:01.771Z,42.20
2022-12-09T13:27:25.066Z,60.87
2022-12-09T13:30:36.840Z,86.15
2022-12-09T13:33:45.607Z,60.42
2022-12-09T13:36:49.172Z,145.65
2022-12-09T13:39:52.210Z,103.43
2022-12-09T13:43:25.697Z,63.23
2022-12-09T13:46:28.954Z,42.83
2022-12-09T13:49:40.246Z,40.42
2022-12-09T13:52:55.726Z,42.20
2022-12-09T13:56:09.777Z,45.00
2022-12-09T13:59:32.502Z,46.43
2022-12-09T14:02:40.769Z,41.92
2022-12-09T14:05:44.194Z,46.75
2022-12-09T14:08:51.461Z,44.00
2022-12-09T14:11:55.816Z,47.10
2022-12-09T14:15:02.787Z,44.70
2022-12-09T14:18:27.348Z,44.63
2022-12-09T14:21:31.643Z,47.97
2022-12-09T14:24:35.696Z,50.35
2022-12-09T14:27:38.846Z,50.00
2022-12-09T14:30:52.052Z,44.73
2022-12-09T14:33:56.913Z,44.97
2022-12-09T14:37:15.527Z,94.13
2022-12-09T14:40:21.528Z,50.88
2022-12-09T14:43:50.555Z,55.50
2022-12-09T14:47:15.426Z,83.23
2022-12-09T14:50:22.745Z,57.83
2022-12-09T14:53:26.306Z,42.62
2022-12-09T14:56:31.313Z,42.30
2022-12-09T14:59:36.340Z,45.37
2022-12-09T15:02:39.848Z,42.60
2022-12-09T15:05:55.212Z,44.08
2022-12-09T15:08:59.793Z,42.92
2022-12-09T15:12:08.937Z,56.15
2022-12-09T15:15:32.372Z,65.53
2022-12-09T15:18:37.970Z,129.30
2022-12-09T15:21:41.013Z,57.92
2022-12-09T15:24:50.306Z,43.35
2022-12-09T15:28:01.615Z,47.35
2022-12-09T15:31:18.013Z,86.67
2022-12-09T15:34:26.556Z,47.43
2022-12-09T15:37:29.742Z,64.50
2022-12-09T15:40:34.798Z,45.15
2022-12-09T15:43:38.880Z,45.10
2022-12-09T15:46:42.735Z,40.73
2022-12-09T15:49:52.699Z,39.87
2022-12-09T15:53:05.388Z,47.53
2022-12-09T15:56:14.585Z,43.30
2022-12-09T15:59:21.955Z,40.90
2022-12-09T16:02:30.950Z,37.90
2022-12-09T16:05:41.425Z,44.67
2022-12-09T16:08:45.497Z,40.78
2022-12-09T16:11:50.943Z,40.38
2022-12-09T16:14:54.288Z,41.47
2022-12-09T16:17:58.158Z,38.97
2022-12-09T16:21:01.502Z,39.83
2022-12-09T16:24:08.743Z,43.67
2022-12-09T16:27:14.592Z,36.63
2022-12-09T16:30:23.619Z,38.38
2022-12-09T16:33:27.807Z,45.97
2022-12-09T16:36:33.740Z,79.30
2022-12-09T16:39:56.165Z,63.28
2022-12-09T16:43:41.744Z,64.62
2022-12-09T16:47:35.774Z,46.00
2022-12-09T16:51:03.732Z,50.13
2022-12-09T16:54:21.319Z,45.57
2022-12-09T16:57:27.513Z,44.35
2022-12-09T17:00:32.093Z,51.33
2022-12-09T17:03:41.761Z,61.78
2022-12-09T17:06:46.866Z,62.80
2022-12-09T17:09:50.165Z,51.50
2022-12-09T17:12:53.954Z,49.90
2022-12-09T17:16:00.992Z,42.53
2022-12-09T17:19:05.828Z,47.05
2022-12-09T17:22:09.400Z,49.97
2022-12-09T17:25:12.753Z,49.77
2022-12-09T17:28:15.879Z,54.78
2022-12-09T17:31:24.383Z,47.03
2022-12-09T17:34:27.785Z,39.90
2022-12-09T17:37:34.049Z,44.50
2022-12-09T17:40:37.293Z,39.97
2022-12-09T17:43:40.709Z,45.20
2022-12-09T17:46:44.564Z,60.88
2022-12-09T17:49:47.791Z,66.95
2022-12-09T17:52:50.790Z,52.90
2022-12-09T17:55:53.750Z,46.07
2022-12-09T17:59:00.123Z,49.88
2022-12-09T18:02:04.905Z,43.97
2022-12-09T18:05:09.373Z,53.13
2022-12-09T18:08:12.412Z,49.03
2022-12-09T18:11:15.564Z,50.70
2022-12-09T18:14:18.857Z,44.75
2022-12-09T18:17:21.674Z,53.25
2022-12-09T18:20:25.439Z,42.28
2022-12-09T18:23:28.705Z,39.53
2022-12-09T18:26:35.410Z,39.27
2022-12-09T18:29:42.775Z,38.80
2022-12-09T18:32:45.841Z,46.28
2022-12-09T18:35:48.845Z,44.88
2022-12-09T18:38:59.927Z,42.63
2022-12-09T18:42:12.593Z,41.93
2022-12-09T18:45:21.724Z,43.75
2022-12-09T18:48:26.527Z,46.60
2022-12-09T18:51:29.938Z,45.72
2022-12-09T18:54:36.287Z,39.93
2022-12-09T18:57:41.093Z,35.03
2022-12-09T19:00:45.171Z,37.17
2022-12-09T19:04:19.069Z,37.50
2022-12-09T19:07:32.488Z,35.53
2022-12-09T19:10:58.220Z,38.27
2022-12-09T19:14:30.693Z,42.43
2022-12-09T19:17:40.847Z,39.50
2022-12-09T19:20:48.503Z,35.22
2022-12-09T19:24:38.458Z,37.90
2022-12-09T19:27:48.249Z,38.13
2022-12-09T19:30:51.307Z,36.40
2022-12-09T19:34:13.419Z,35.10
2022-12-09T19:37:16.509Z,39.45
2022-12-09T19:40:19.629Z,34.83
2022-12-09T19:43:22.679Z,34.90
2022-12-09T19:46:26.939Z,34.63
2022-12-09T19:49:30.208Z,53.90
2022-12-09T19:52:33.206Z,38.05
2022-12-09T19:55:36.699Z,35.08
2022-12-09T19:58:40.940Z,34.63
2022-12-09T20:01:45.565Z,33.63
2022-12-09T20:04:50.307Z,33.50
2022-12-09T20:07:54.442Z,33.53
2022-12-09T20:10:57.599Z,44.80
2022-12-09T20:14:02.462Z,38.23
2022-12-09T20:17:05.607Z,29.60
2022-12-09T20:20:10.896Z,35.60
2022-12-09T20:23:13.983Z,33.22
2022-12-09T20:26:23.366Z,32.70
2022-12-09T20:29:32.402Z,32.10
2022-12-09T20:32:45.220Z,31.50
2022-12-09T20:35:50.298Z,30.33
2022-12-09T20:38:56.004Z,77.03
2022-12-09T20:41:59.687Z,92.50
2022-12-09T20:45:02.964Z,40.47
2022-12-09T20:48:06.303Z,40.57
2022-12-09T20:51:16.195Z,29.23
2022-12-09T20:54:19.399Z,27.73
2022-12-09T20:57:22.788Z,33.95
2022-12-09T21:00:25.925Z,36.97
2022-12-09T21:03:29.236Z,36.43
2022-12-09T21:06:38.193Z,39.22
2022-12-09T21:09:41.344Z,32.13
2022-12-09T21:12:44.508Z,28.70
2022-12-09T21:15:47.853Z,26.17
2022-12-09T21:18:53.675Z,24.37
2022-12-09T21:21:56.914Z,25.60
2022-12-09T21:25:00.097Z,25.40
2022-12-09T21:28:03.500Z,27.75
2022-12-09T21:31:12.403Z,28.67
2022-12-09T21:34:15.660Z,24.13
2022-12-09T21:37:18.744Z,21.48
2022-12-09T21:40:21.820Z,29.85
2022-12-09T21:43:24.748Z,23.38
2022-12-09T21:46:30.064Z,22.27
2022-12-09T21:49:33.746Z,21.40
2022-12-09T21:52:37.007Z,25.98
2022-12-09T21:55:40.158Z,22.85
2022-12-09T21:58:44.710Z,22.73
2022-12-09T22:01:47.765Z,21.97
2022-12-09T22:04:50.968Z,19.87
2022-12-09T22:07:53.967Z,20.62
2022-12-09T22:10:58.711Z,20.40
2022-12-09T22:14:05.349Z,20.00
2022-12-09T22:17:08.681Z,21.33
2022-12-09T22:20:54.025Z,22.70
2022-12-09T22:23:35.341Z,25.15
2022-12-09T22:26:38.239Z,28.92
2022-12-09T22:29:41.154Z,27.02
2022-12-09T22:32:50.390Z,22.30
2022-12-09T22:35:53.772Z,18.23
2022-12-09T22:38:56.860Z,21.60
2022-12-09T22:41:59.963Z,29.08
2022-12-09T22:45:02.799Z,37.00
2022-12-09T22:48:06.119Z,58.90
2022-12-09T22:51:29.750Z,17.67
2022-12-09T22:54:32.627Z,20.67
2022-12-09T22:57:35.521Z,24.75
2022-12-09T23:00:41.343Z,33.40
2022-12-09T23:03:44.934Z,24.73
2022-12-09T23:06:48.399Z,20.17
2022-12-09T23:09:51.639Z,20.70
2022-12-09T23:13:07.866Z,22.00
2022-12-09T23:16:15.928Z,19.10
2022-12-09T23:19:19.061Z,20.60
2022-12-09T23:22:21.902Z,20.60
2022-12-09T23:25:24.807Z,20.42
2022-12-09T23:28:27.635Z,17.58
2022-12-09T23:31:33.948Z,17.80
2022-12-09T23:34:36.855Z,17.23
2022-12-09T23:37:39.702Z,17.13
2022-12-09T23:40:50.962Z,17.08
2022-12-09T23:43:54.007Z,15.98
2022-12-09T23:46:56.729Z,15.93
2022-12-09T23:49:59.550Z,15.37
2022-12-09T23:53:02.326Z,15.37
2022-12-09T23:56:05.457Z,14.85
2022-12-09T23:59:10.994Z,13.40
